Item Display Status Humidity-temperature Sensor

Elevation Above Sea Level: 3 m

 

Deployed Sensor

  • Serial Number: 20066137
  • NDBC Property Number: 40484
  • Start Date: 11/19/2018 (13:28:49 Z)
  • End Date: Currently Active
Relative Humidity [%]     6 entries per hour
Showing data from 3/18/2020 (22:00:00 Z) to 3/17/2020 (00:00:01 Z)
Previous Next [ Day | 3-Days | 7-Days ]
First Last
Prev [ Day | 3-Days | 7-Days ] Next
First Last

Start Time:     :
End Time:     :     
Time (in GMT) :00 :50 :40 :30 :20 :10
Previous Next [ Day | 3-Days | 7-Days ]
First Last
Prev [ Day | 3-Days | 7-Days ] Next
First Last


123 => good data
MM => data is determined as missing
-- => data not received/configured
Back to Top Back to Top
3/18/2020 22:00 to 21:10 71.68 71.20 71.53 70.22 70.24 69.29
3/18/2020 21:00 to 20:10 70.93 69.91 69.41 69.81 69.68 70.81
3/18/2020 20:00 to 19:10 72.26 72.18 72.59 72.95 73.51 73.01
3/18/2020 19:00 to 18:10 73.71 71.95 70.99 72.01 71.86 71.78
3/18/2020 18:00 to 17:10 71.64 72.57 72.01 72.14 71.91 70.85
3/18/2020 17:00 to 16:10 71.86 70.56 71.14 70.80 69.77 69.45
3/18/2020 16:00 to 15:10 70.62 71.14 70.27 70.18 69.85 70.41
3/18/2020 15:00 to 14:10 70.08 69.50 70.43 70.99 70.35 70.08
3/18/2020 14:00 to 13:10 70.89 71.45 71.33 71.64 71.66 72.03
3/18/2020 13:00 to 12:10 73.44 73.78 72.61 73.13 71.22 72.55
3/18/2020 12:00 to 11:10 74.15 74.30 74.17 73.88 75.00 74.82
3/18/2020 11:00 to 10:10 74.23 73.96 73.30 73.57 73.53 73.24
3/18/2020 10:00 to 9:10 72.53 71.33 71.49 72.49 71.24 71.24
3/18/2020 09:00 to 8:10 70.95 71.53 71.60 73.51 72.16 71.35
3/18/2020 08:00 to 7:10 70.66 71.22 72.24 74.55 76.06 77.19
3/18/2020 07:00 to 6:10 78.02 77.25 75.42 74.53 72.74 72.78
3/18/2020 06:00 to 5:10 73.71 73.71 72.80 71.72 71.91 71.10
3/18/2020 05:00 to 4:10 70.68 71.86 72.12 71.26 71.84 71.47
3/18/2020 04:00 to 3:10 71.49 70.91 71.47 72.59 69.81 70.31
3/18/2020 03:00 to 2:10 71.30 70.60 71.28 71.57 72.28 72.18
3/18/2020 02:00 to 1:10 72.90 72.36 72.07 70.64 71.78 72.20
3/18/2020 01:00 to 0:10 71.35 71.64 72.84 70.81 71.24 71.93
3/18/2020 00:00 to 23:10 71.80 71.53 70.01 71.49 70.62 70.16
3/17/2020 23:00 to 22:10 70.97 70.91 70.35 70.29 70.22 69.22
3/17/2020 22:00 to 21:10 69.93 71.41 71.64 72.65 72.70 73.22
3/17/2020 21:00 to 20:10 72.49 73.32 72.34 70.68 70.10 69.16
3/17/2020 20:00 to 19:10 70.60 71.74 69.45 69.52 70.06 72.01
3/17/2020 19:00 to 18:10 72.38 70.78 70.02 71.20 70.99 70.51
3/17/2020 18:00 to 17:10 69.62 69.81 69.83 68.85 67.65 68.81
3/17/2020 17:00 to 16:10 68.68 67.71 66.96 68.08 68.71 67.15
3/17/2020 16:00 to 15:10 68.37 66.67 66.04 67.10 66.34 66.58
3/17/2020 15:00 to 14:10 67.73 67.77 68.77 70.27 67.52 68.69
3/17/2020 14:00 to 13:10 68.31 68.44 68.79 69.74 70.93 71.35
3/17/2020 13:00 to 12:10 72.22 70.99 70.18 70.51 70.68 70.81
3/17/2020 12:00 to 11:10 69.62 69.74 70.51 72.47 74.09 72.07
3/17/2020 11:00 to 10:10 72.76 71.68 73.17 73.38 72.41 73.28
3/17/2020 10:00 to 9:10 72.24 69.89 72.76 74.82 73.82 73.36
3/17/2020 09:00 to 8:10 72.39 73.09 72.47 71.32 70.39 70.95
3/17/2020 08:00 to 7:10 71.53 72.82 74.19 73.01 72.43 71.08
3/17/2020 07:00 to 6:10 71.51 71.68 72.32 71.45 71.99 72.63
3/17/2020 06:00 to 5:10 71.99 71.18 71.05 71.05 69.27 71.53
3/17/2020 05:00 to 4:10 71.07 71.86 70.89 69.77 70.22 70.91
3/17/2020 04:00 to 3:10 72.36 71.32 69.68 68.35 69.23 68.33
3/17/2020 03:00 to 2:10 68.08 67.33 67.37 68.21 67.25 67.63
3/17/2020 02:00 to 1:10 65.61 64.34 65.50 64.80 63.80 64.84
3/17/2020 01:00 to 0:10 65.09 65.13 64.42 66.63 65.88 66.38

 

 

 

Air Temperature [°C]     6 entries per hour
Showing data from 12/14/2019 (19:30:00 Z) to 12/13/2019 (00:00:01 Z)
Previous Next [ Day | 3-Days | 7-Days ]
First Last
Prev [ Day | 3-Days | 7-Days ] Next
First Last

Start Time:     :
End Time:     :     
Time (in GMT) :00 :50 :40 :30 :20 :10
Previous Next [ Day | 3-Days | 7-Days ]
First Last
Prev [ Day | 3-Days | 7-Days ] Next
First Last


123 => good data
MM => data is determined as missing
-- => data not received/configured
Back to Top Back to Top
12/14/2019 20:00 to 19:10 -- -- -- 22.18 22.26 22.17
12/14/2019 19:00 to 18:10 22.11 22.23 22.23 22.32 22.34 22.32
12/14/2019 18:00 to 17:10 22.45 22.25 22.20 22.34 22.31 22.24
12/14/2019 17:00 to 16:10 22.30 22.30 22.46 22.28 22.33 22.30
12/14/2019 16:00 to 15:10 22.30 22.36 22.35 22.14 22.29 22.19
12/14/2019 15:00 to 14:10 22.16 22.25 22.15 22.06 22.04 22.06
12/14/2019 14:00 to 13:10 22.18 22.25 22.34 22.11 22.00 22.23
12/14/2019 13:00 to 12:10 22.21 22.12 21.97 22.04 21.93 22.05
12/14/2019 12:00 to 11:10 21.89 21.86 21.92 21.82 21.64 21.72
12/14/2019 11:00 to 10:10 21.70 21.59 21.73 21.73 21.73 21.81
12/14/2019 10:00 to 9:10 21.67 21.59 21.70 21.71 21.77 21.82
12/14/2019 09:00 to 8:10 21.88 21.89 21.87 21.77 21.91 21.92
12/14/2019 08:00 to 7:10 21.82 21.74 21.85 21.90 21.77 22.03
12/14/2019 07:00 to 6:10 21.80 21.87 21.74 21.74 21.77 21.80
12/14/2019 06:00 to 5:10 21.79 21.83 21.92 22.03 21.99 22.00
12/14/2019 05:00 to 4:10 22.06 21.99 21.89 21.96 21.95 21.97
12/14/2019 04:00 to 3:10 21.88 21.92 22.04 22.02 22.03 22.04
12/14/2019 03:00 to 2:10 21.96 22.02 21.96 22.00 21.99 22.04
12/14/2019 02:00 to 1:10 22.06 22.10 22.05 22.10 22.26 22.01
12/14/2019 01:00 to 0:10 22.17 22.00 22.14 22.02 22.33 22.36
12/14/2019 00:00 to 23:10 22.12 22.30 22.25 22.39 22.29 22.48
12/13/2019 23:00 to 22:10 22.43 22.37 22.39 22.42 22.44 22.50
12/13/2019 22:00 to 21:10 22.41 22.15 22.32 22.23 22.28 22.29
12/13/2019 21:00 to 20:10 22.38 22.27 22.22 22.34 22.32 22.27
12/13/2019 20:00 to 19:10 22.28 22.36 22.32 22.43 22.38 22.39
12/13/2019 19:00 to 18:10 22.28 22.24 22.35 22.26 22.23 22.21
12/13/2019 18:00 to 17:10 22.17 22.19 22.15 22.17 22.22 22.21
12/13/2019 17:00 to 16:10 22.18 22.44 22.43 22.53 22.38 22.43
12/13/2019 16:00 to 15:10 22.39 22.46 22.36 22.42 22.29 22.35
12/13/2019 15:00 to 14:10 22.35 22.25 22.26 22.33 22.29 22.40
12/13/2019 14:00 to 13:10 22.34 22.25 22.11 22.25 22.39 22.20
12/13/2019 13:00 to 12:10 22.13 22.07 22.13 22.08 22.28 22.05
12/13/2019 12:00 to 11:10 22.08 22.15 22.13 22.02 21.99 22.16
12/13/2019 11:00 to 10:10 22.04 22.01 22.37 22.14 22.13 22.01
12/13/2019 10:00 to 9:10 22.13 22.12 22.04 22.18 22.19 22.21
12/13/2019 09:00 to 8:10 22.12 22.36 22.25 22.27 22.26 22.33
12/13/2019 08:00 to 7:10 22.13 22.14 22.24 22.33 22.04 22.03
12/13/2019 07:00 to 6:10 22.14 22.25 22.16 22.02 22.10 22.18
12/13/2019 06:00 to 5:10 22.20 22.04 22.08 22.24 22.26 22.31
12/13/2019 05:00 to 4:10 22.22 22.14 22.07 22.18 22.07 22.05
12/13/2019 04:00 to 3:10 22.16 22.11 22.12 22.11 22.02 22.01
12/13/2019 03:00 to 2:10 22.13 21.99 22.06 21.96 22.04 22.10
12/13/2019 02:00 to 1:10 22.11 22.06 21.92 22.01 22.00 22.13
12/13/2019 01:00 to 0:10 21.88 21.84 21.90 22.02 22.00 22.00